Overview Statistics Trail Chart Weather Telemetry Raw packets
 

This is the latest recevied telemetry packets stored in our database for station/object IZ5YLK-15. If no packets are shown the sender has not sent any telemetry packets the latest 10 day(s).

Telemetry packets is used to share measurements like repeteater parameters, battery voltage, radiation readings (or any other measurements).

<< 1 2 3 4 >>
Time Press* Temp.in* Hum* QNH* Temp.out*
1788612227 989.8 hPa 35.2 C deg 0 % 1023.5 hPa 0 C deg
1788610412 990.1 hPa 34.8 C deg 0 % 1023.8 hPa 0 C deg
1788608646 990.2 hPa 34.5 C deg 0 % 1024 hPa 0 C deg
1788608587 990.2 hPa 34.5 C deg 0 % 1024 hPa 0 C deg
1788606774 990.7 hPa 33.7 C deg 0 % 1024.5 hPa 0 C deg
1788603160 991.1 hPa 31.7 C deg 0 % 1025.2 hPa 0 C deg
1788601329 991 hPa 31 C deg 0 % 1025.2 hPa 0 C deg
1788599538 991.2 hPa 29.6 C deg 0 % 1025.6 hPa 0 C deg
1788597792 991.2 hPa 27.8 C deg 0 % 1025.8 hPa 0 C deg
1788597748 991.2 hPa 27.8 C deg 0 % 1025.8 hPa 0 C deg
1788595942 991 hPa 25.7 C deg 0 % 1025.8 hPa 0 C deg
1788592313 991 hPa 22.4 C deg 0 % 1026.1 hPa 0 C deg
1788592274 991 hPa 22.4 C deg 0 % 1026.1 hPa 0 C deg
1788590526 991.1 hPa 20.8 C deg 0 % 1026.5 hPa 0 C deg
1788590437 991.1 hPa 20.8 C deg 0 % 1026.5 hPa 0 C deg
1788588730 991.1 hPa 20.1 C deg 0 % 1026.6 hPa 0 C deg
1788588622 991.1 hPa 20.1 C deg 0 % 1026.6 hPa 0 C deg
1788586882 991.3 hPa 19 C deg 0 % 1027 hPa 0 C deg
1788585061 991.3 hPa 18.9 C deg 0 % 1027 hPa 0 C deg
1788583176 991 hPa 19.1 C deg 0 % 1026.6 hPa 0 C deg
1788579589 991 hPa 19.1 C deg 0 % 1026.6 hPa 0 C deg
1788577786 991 hPa 19.3 C deg 0 % 1026.6 hPa 0 C deg
1788575913 990.9 hPa 19.6 C deg 0 % 1026.4 hPa 0 C deg
1788574163 990.8 hPa 20.1 C deg 0 % 1026.3 hPa 0 C deg
1788574101 990.8 hPa 20.1 C deg 0 % 1026.3 hPa 0 C deg
*Used Equation Coefficients:
Press: 0, 1, 0
Temp.in: 0, 1, 0
Hum: 0, 1, 0
QNH: 0, 1, 0
Temp.out: 0, 1, 0

  • The parameter names for the analog channels will be Value1, Value2, Value3 (up to Value5) if station has not sent a PARAM-packet that specifies the parameter names for each analog channel.
  • Each analog value is a decimal number between 000 and 255 (according to APRS specifications). The receiver use the telemetry equation coefficientsto to restore the original sensor values. If no EQNS-packet with equation coefficients is sent we will show the values as is (this corresponds to the equation coefficients a=0, b=1 and c=0).
    The sent equation coefficients is used in the equation: a * value2 + b * value + c.
  • The units for the analog values will not be shown if station has not sent a UNIT-packet specifying what unit's to use.
  • The parameter names for the digital bits will be Bit1, Bit2, Bit3 (up to Bit8) if station has not sent a PARAM-packet that specifies the parameter names for each digital bit.
  • All bit labels will be named "On" if station has not sent a UNIT-packet that specifies the label of each bit.
  • A bit is considered to be On when the bit is 1 if station has not sent a BITS-packet that specifies another "Bit sense" (a BITS-packet specify the state of the bits that match the BIT labels)